sensor_id;sensor_type;location;lat;lon;timestamp;P1;durP1;ratioP1;P2;durP2;ratioP2
34697;SDS011;61391;50.922;6.928;2023-08-06T00:00:37;1.92;;;1.02;;
34697;SDS011;61391;50.922;6.928;2023-08-06T00:03:03;1.92;;;1.15;;
34697;SDS011;61391;50.922;6.928;2023-08-06T00:05:29;2.13;;;1.15;;
34697;SDS011;61391;50.922;6.928;2023-08-06T00:07:54;1.30;;;1.17;;
34697;SDS011;61391;50.922;6.928;2023-08-06T00:10:21;2.13;;;1.30;;
34697;SDS011;61391;50.922;6.928;2023-08-06T00:12:46;1.38;;;1.27;;
34697;SDS011;61391;50.922;6.928;2023-08-06T00:15:12;1.77;;;1.30;;
34697;SDS011;61391;50.922;6.928;2023-08-06T00:17:37;1.30;;;1.05;;
34697;SDS011;61391;50.922;6.928;2023-08-06T00:20:03;1.80;;;1.50;;
34697;SDS011;61391;50.922;6.928;2023-08-06T00:22:31;1.75;;;1.17;;
34697;SDS011;61391;50.922;6.928;2023-08-06T00:24:58;2.17;;;1.50;;
34697;SDS011;61391;50.922;6.928;2023-08-06T00:27:23;3.03;;;1.20;;
34697;SDS011;61391;50.922;6.928;2023-08-06T00:29:49;1.92;;;1.40;;
34697;SDS011;61391;50.922;6.928;2023-08-06T00:32:15;2.05;;;1.15;;
34697;SDS011;61391;50.922;6.928;2023-08-06T00:34:40;1.30;;;1.20;;
34697;SDS011;61391;50.922;6.928;2023-08-06T00:37:06;1.42;;;1.13;;
34697;SDS011;61391;50.922;6.928;2023-08-06T00:39:31;1.83;;;1.33;;
34697;SDS011;61391;50.922;6.928;2023-08-06T00:41:57;1.30;;;1.20;;
34697;SDS011;61391;50.922;6.928;2023-08-06T00:44:23;2.67;;;1.30;;
34697;SDS011;61391;50.922;6.928;2023-08-06T00:46:49;1.70;;;1.17;;
34697;SDS011;61391;50.922;6.928;2023-08-06T00:49:15;1.92;;;1.75;;
34697;SDS011;61391;50.922;6.928;2023-08-06T00:51:40;2.40;;;1.75;;
34697;SDS011;61391;50.922;6.928;2023-08-06T00:54:07;3.15;;;1.25;;
34697;SDS011;61391;50.922;6.928;2023-08-06T00:56:34;1.40;;;1.17;;
34697;SDS011;61391;50.922;6.928;2023-08-06T00:59:01;1.60;;;1.50;;
34697;SDS011;61391;50.922;6.928;2023-08-06T01:01:27;1.85;;;1.58;;
34697;SDS011;61391;50.922;6.928;2023-08-06T01:03:53;4.15;;;1.50;;
34697;SDS011;61391;50.922;6.928;2023-08-06T01:06:19;4.32;;;2.25;;
34697;SDS011;61391;50.922;6.928;2023-08-06T01:08:54;1.48;;;1.38;;
34697;SDS011;61391;50.922;6.928;2023-08-06T01:11:26;4.85;;;1.80;;
34697;SDS011;61391;50.922;6.928;2023-08-06T01:13:59;2.22;;;1.50;;
34697;SDS011;61391;50.922;6.928;2023-08-06T01:16:31;7.32;;;1.70;;
34697;SDS011;61391;50.922;6.928;2023-08-06T01:18:58;2.38;;;1.70;;
34697;SDS011;61391;50.922;6.928;2023-08-06T01:21:24;1.23;;;1.13;;
34697;SDS011;61391;50.922;6.928;2023-08-06T01:23:49;2.90;;;2.00;;
34697;SDS011;61391;50.922;6.928;2023-08-06T01:26:32;1.45;;;1.35;;
34697;SDS011;61391;50.922;6.928;2023-08-06T01:29:07;1.77;;;1.50;;
34697;SDS011;61391;50.922;6.928;2023-08-06T01:31:43;6.13;;;2.28;;
34697;SDS011;61391;50.922;6.928;2023-08-06T01:34:13;3.17;;;1.40;;
34697;SDS011;61391;50.922;6.928;2023-08-06T01:36:44;1.88;;;1.65;;
34697;SDS011;61391;50.922;6.928;2023-08-06T01:39:10;3.03;;;1.48;;
34697;SDS011;61391;50.922;6.928;2023-08-06T01:41:35;1.60;;;1.30;;
34697;SDS011;61391;50.922;6.928;2023-08-06T01:44:01;1.75;;;1.48;;
34697;SDS011;61391;50.922;6.928;2023-08-06T01:46:27;2.45;;;1.52;;
34697;SDS011;61391;50.922;6.928;2023-08-06T01:48:52;2.15;;;1.48;;
34697;SDS011;61391;50.922;6.928;2023-08-06T01:51:18;2.03;;;1.60;;
34697;SDS011;61391;50.922;6.928;2023-08-06T01:53:43;1.10;;;1.00;;
34697;SDS011;61391;50.922;6.928;2023-08-06T01:56:09;3.42;;;1.63;;
34697;SDS011;61391;50.922;6.928;2023-08-06T01:58:34;1.27;;;1.13;;
34697;SDS011;61391;50.922;6.928;2023-08-06T02:01:01;1.50;;;1.40;;
34697;SDS011;61391;50.922;6.928;2023-08-06T02:03:27;1.30;;;1.20;;
34697;SDS011;61391;50.922;6.928;2023-08-06T02:05:52;3.08;;;1.77;;
34697;SDS011;61391;50.922;6.928;2023-08-06T02:08:18;1.98;;;1.33;;
34697;SDS011;61391;50.922;6.928;2023-08-06T02:10:44;1.75;;;1.58;;
34697;SDS011;61391;50.922;6.928;2023-08-06T02:13:10;1.58;;;1.20;;
34697;SDS011;61391;50.922;6.928;2023-08-06T02:15:36;1.45;;;1.35;;
34697;SDS011;61391;50.922;6.928;2023-08-06T02:18:07;2.00;;;1.17;;
34697;SDS011;61391;50.922;6.928;2023-08-06T02:20:33;1.73;;;1.10;;
34697;SDS011;61391;50.922;6.928;2023-08-06T02:22:58;1.40;;;1.30;;
34697;SDS011;61391;50.922;6.928;2023-08-06T02:25:24;1.48;;;1.38;;
34697;SDS011;61391;50.922;6.928;2023-08-06T02:27:49;2.03;;;1.48;;
34697;SDS011;61391;50.922;6.928;2023-08-06T02:30:15;1.80;;;1.23;;
34697;SDS011;61391;50.922;6.928;2023-08-06T02:32:41;2.25;;;1.55;;
34697;SDS011;61391;50.922;6.928;2023-08-06T02:35:06;1.63;;;1.52;;
34697;SDS011;61391;50.922;6.928;2023-08-06T02:37:35;2.10;;;1.58;;
34697;SDS011;61391;50.922;6.928;2023-08-06T02:40:01;1.25;;;0.90;;
34697;SDS011;61391;50.922;6.928;2023-08-06T02:42:27;2.33;;;1.17;;
34697;SDS011;61391;50.922;6.928;2023-08-06T02:44:53;1.85;;;1.40;;
34697;SDS011;61391;50.922;6.928;2023-08-06T02:47:21;1.83;;;1.25;;
34697;SDS011;61391;50.922;6.928;2023-08-06T02:49:47;3.20;;;1.25;;
34697;SDS011;61391;50.922;6.928;2023-08-06T02:52:12;2.75;;;1.40;;
34697;SDS011;61391;50.922;6.928;2023-08-06T02:54:38;1.50;;;1.40;;
34697;SDS011;61391;50.922;6.928;2023-08-06T02:57:04;3.80;;;1.35;;
34697;SDS011;61391;50.922;6.928;2023-08-06T02:59:30;2.05;;;1.30;;
34697;SDS011;61391;50.922;6.928;2023-08-06T03:01:56;1.77;;;1.33;;
34697;SDS011;61391;50.922;6.928;2023-08-06T03:04:22;1.33;;;1.20;;
34697;SDS011;61391;50.922;6.928;2023-08-06T03:06:49;1.27;;;1.10;;
34697;SDS011;61391;50.922;6.928;2023-08-06T03:09:15;2.05;;;1.30;;
34697;SDS011;61391;50.922;6.928;2023-08-06T03:11:41;3.28;;;1.52;;
34697;SDS011;61391;50.922;6.928;2023-08-06T03:14:06;1.33;;;1.23;;
34697;SDS011;61391;50.922;6.928;2023-08-06T03:16:32;1.33;;;1.13;;
34697;SDS011;61391;50.922;6.928;2023-08-06T03:18:57;2.03;;;1.20;;
34697;SDS011;61391;50.922;6.928;2023-08-06T03:21:23;2.10;;;1.30;;
34697;SDS011;61391;50.922;6.928;2023-08-06T03:23:49;2.22;;;1.58;;
34697;SDS011;61391;50.922;6.928;2023-08-06T03:26:14;1.48;;;1.30;;
34697;SDS011;61391;50.922;6.928;2023-08-06T03:28:40;1.83;;;1.33;;
34697;SDS011;61391;50.922;6.928;2023-08-06T03:31:05;1.95;;;1.50;;
34697;SDS011;61391;50.922;6.928;2023-08-06T03:33:31;1.85;;;1.15;;
34697;SDS011;61391;50.922;6.928;2023-08-06T03:35:57;1.80;;;1.05;;
34697;SDS011;61391;50.922;6.928;2023-08-06T03:38:22;1.38;;;1.10;;
34697;SDS011;61391;50.922;6.928;2023-08-06T03:40:48;1.58;;;1.17;;
34697;SDS011;61391;50.922;6.928;2023-08-06T03:43:14;1.38;;;1.10;;
34697;SDS011;61391;50.922;6.928;2023-08-06T03:45:40;1.90;;;1.27;;
34697;SDS011;61391;50.922;6.928;2023-08-06T03:48:06;1.25;;;1.15;;
34697;SDS011;61391;50.922;6.928;2023-08-06T03:50:32;2.33;;;1.20;;
34697;SDS011;61391;50.922;6.928;2023-08-06T03:52:57;3.03;;;1.40;;
34697;SDS011;61391;50.922;6.928;2023-08-06T03:55:23;1.70;;;1.55;;
34697;SDS011;61391;50.922;6.928;2023-08-06T03:57:48;1.40;;;1.27;;
34697;SDS011;61391;50.922;6.928;2023-08-06T04:00:14;3.13;;;1.58;;
34697;SDS011;61391;50.922;6.928;2023-08-06T04:02:40;1.95;;;1.30;;
34697;SDS011;61391;50.922;6.928;2023-08-06T04:05:05;4.75;;;1.77;;
34697;SDS011;61391;50.922;6.928;2023-08-06T04:07:31;1.98;;;1.42;;
34697;SDS011;61391;50.922;6.928;2023-08-06T04:09:58;3.25;;;1.23;;
34697;SDS011;61391;50.922;6.928;2023-08-06T04:12:24;4.28;;;1.42;;
34697;SDS011;61391;50.922;6.928;2023-08-06T04:14:51;2.85;;;1.67;;
34697;SDS011;61391;50.922;6.928;2023-08-06T04:17:17;1.60;;;1.50;;
34697;SDS011;61391;50.922;6.928;2023-08-06T04:19:47;1.70;;;1.48;;
34697;SDS011;61391;50.922;6.928;2023-08-06T04:22:14;1.15;;;1.05;;
34697;SDS011;61391;50.922;6.928;2023-08-06T04:24:40;3.78;;;1.40;;
34697;SDS011;61391;50.922;6.928;2023-08-06T04:27:06;1.55;;;1.27;;
34697;SDS011;61391;50.922;6.928;2023-08-06T04:29:33;2.10;;;1.13;;
34697;SDS011;61391;50.922;6.928;2023-08-06T04:31:58;2.83;;;1.67;;
34697;SDS011;61391;50.922;6.928;2023-08-06T04:34:24;1.35;;;1.25;;
34697;SDS011;61391;50.922;6.928;2023-08-06T04:36:49;1.52;;;1.42;;
34697;SDS011;61391;50.922;6.928;2023-08-06T04:39:15;2.08;;;1.35;;
34697;SDS011;61391;50.922;6.928;2023-08-06T04:41:40;3.72;;;1.35;;
34697;SDS011;61391;50.922;6.928;2023-08-06T04:44:06;3.17;;;1.40;;
34697;SDS011;61391;50.922;6.928;2023-08-06T04:46:31;2.60;;;1.42;;
34697;SDS011;61391;50.922;6.928;2023-08-06T04:48:57;1.48;;;1.15;;
34697;SDS011;61391;50.922;6.928;2023-08-06T04:51:23;2.58;;;1.60;;
34697;SDS011;61391;50.922;6.928;2023-08-06T04:53:48;1.52;;;1.42;;
34697;SDS011;61391;50.922;6.928;2023-08-06T04:56:14;1.70;;;1.42;;
34697;SDS011;61391;50.922;6.928;2023-08-06T04:58:39;3.55;;;1.65;;
34697;SDS011;61391;50.922;6.928;2023-08-06T05:01:06;1.83;;;1.38;;
34697;SDS011;61391;50.922;6.928;2023-08-06T05:03:31;2.25;;;1.52;;
34697;SDS011;61391;50.922;6.928;2023-08-06T05:05:57;2.28;;;1.52;;
34697;SDS011;61391;50.922;6.928;2023-08-06T05:08:23;2.28;;;1.88;;
34697;SDS011;61391;50.922;6.928;2023-08-06T05:10:48;1.88;;;1.65;;
34697;SDS011;61391;50.922;6.928;2023-08-06T05:13:14;3.22;;;1.63;;
34697;SDS011;61391;50.922;6.928;2023-08-06T05:15:40;1.98;;;1.60;;
34697;SDS011;61391;50.922;6.928;2023-08-06T05:18:07;2.00;;;1.52;;
34697;SDS011;61391;50.922;6.928;2023-08-06T05:20:37;2.90;;;1.65;;
34697;SDS011;61391;50.922;6.928;2023-08-06T05:23:06;2.83;;;1.70;;
34697;SDS011;61391;50.922;6.928;2023-08-06T05:25:34;1.90;;;1.77;;
34697;SDS011;61391;50.922;6.928;2023-08-06T05:28:00;2.33;;;1.58;;
34697;SDS011;61391;50.922;6.928;2023-08-06T05:30:26;3.25;;;1.80;;
34697;SDS011;61391;50.922;6.928;2023-08-06T05:32:52;2.67;;;1.20;;
34697;SDS011;61391;50.922;6.928;2023-08-06T05:35:18;1.58;;;1.48;;
34697;SDS011;61391;50.922;6.928;2023-08-06T05:37:44;1.83;;;1.17;;
34697;SDS011;61391;50.922;6.928;2023-08-06T05:40:11;2.38;;;1.33;;
34697;SDS011;61391;50.922;6.928;2023-08-06T05:42:36;2.00;;;1.30;;
34697;SDS011;61391;50.922;6.928;2023-08-06T05:45:02;1.90;;;1.35;;
34697;SDS011;61391;50.922;6.928;2023-08-06T05:47:27;2.58;;;1.73;;
34697;SDS011;61391;50.922;6.928;2023-08-06T05:49:53;1.88;;;1.58;;
34697;SDS011;61391;50.922;6.928;2023-08-06T05:52:19;1.70;;;1.60;;
34697;SDS011;61391;50.922;6.928;2023-08-06T05:54:44;1.58;;;1.40;;
34697;SDS011;61391;50.922;6.928;2023-08-06T05:57:10;2.45;;;1.73;;
34697;SDS011;61391;50.922;6.928;2023-08-06T05:59:35;2.20;;;1.65;;
34697;SDS011;61391;50.922;6.928;2023-08-06T06:02:01;1.75;;;1.52;;
34697;SDS011;61391;50.922;6.928;2023-08-06T06:04:28;3.10;;;1.65;;
34697;SDS011;61391;50.922;6.928;2023-08-06T06:06:53;3.55;;;1.65;;
34697;SDS011;61391;50.922;6.928;2023-08-06T06:09:19;2.10;;;1.52;;
34697;SDS011;61391;50.922;6.928;2023-08-06T06:11:45;2.40;;;1.30;;
34697;SDS011;61391;50.922;6.928;2023-08-06T06:14:10;1.58;;;1.30;;
34697;SDS011;61391;50.922;6.928;2023-08-06T06:16:36;1.48;;;1.05;;
34697;SDS011;61391;50.922;6.928;2023-08-06T06:19:03;1.70;;;1.60;;
34697;SDS011;61391;50.922;6.928;2023-08-06T06:21:29;2.53;;;1.60;;
34697;SDS011;61391;50.922;6.928;2023-08-06T06:23:54;1.83;;;1.30;;
34697;SDS011;61391;50.922;6.928;2023-08-06T06:26:21;1.10;;;1.00;;
34697;SDS011;61391;50.922;6.928;2023-08-06T06:28:47;1.30;;;0.85;;
34697;SDS011;61391;50.922;6.928;2023-08-06T06:31:12;1.23;;;0.77;;
34697;SDS011;61391;50.922;6.928;2023-08-06T06:33:38;1.42;;;0.70;;
34697;SDS011;61391;50.922;6.928;2023-08-06T06:36:04;1.75;;;0.77;;
34697;SDS011;61391;50.922;6.928;2023-08-06T06:38:29;1.85;;;0.90;;
34697;SDS011;61391;50.922;6.928;2023-08-06T06:40:55;0.60;;;0.60;;
34697;SDS011;61391;50.922;6.928;2023-08-06T06:43:22;0.57;;;0.50;;
34697;SDS011;61391;50.922;6.928;2023-08-06T06:46:00;0.73;;;0.50;;
34697;SDS011;61391;50.922;6.928;2023-08-06T06:48:27;0.52;;;0.52;;
34697;SDS011;61391;50.922;6.928;2023-08-06T06:50:53;1.60;;;0.50;;
34697;SDS011;61391;50.922;6.928;2023-08-06T06:53:19;1.55;;;0.68;;
34697;SDS011;61391;50.922;6.928;2023-08-06T06:55:44;0.68;;;0.50;;
34697;SDS011;61391;50.922;6.928;2023-08-06T06:58:10;1.45;;;0.93;;
34697;SDS011;61391;50.922;6.928;2023-08-06T07:00:36;1.00;;;0.68;;
34697;SDS011;61391;50.922;6.928;2023-08-06T07:03:02;0.85;;;0.68;;
34697;SDS011;61391;50.922;6.928;2023-08-06T07:05:28;0.80;;;0.75;;
34697;SDS011;61391;50.922;6.928;2023-08-06T07:07:54;1.67;;;0.80;;
34697;SDS011;61391;50.922;6.928;2023-08-06T07:10:19;0.68;;;0.68;;
34697;SDS011;61391;50.922;6.928;2023-08-06T07:12:46;0.75;;;0.75;;
34697;SDS011;61391;50.922;6.928;2023-08-06T07:15:13;1.42;;;0.75;;
34697;SDS011;61391;50.922;6.928;2023-08-06T07:17:40;0.73;;;0.70;;
34697;SDS011;61391;50.922;6.928;2023-08-06T07:20:06;1.85;;;0.77;;
34697;SDS011;61391;50.922;6.928;2023-08-06T07:22:32;1.25;;;0.77;;
34697;SDS011;61391;50.922;6.928;2023-08-06T07:24:58;0.80;;;0.80;;
34697;SDS011;61391;50.922;6.928;2023-08-06T07:27:24;0.60;;;0.60;;
34697;SDS011;61391;50.922;6.928;2023-08-06T07:29:50;2.05;;;0.82;;
34697;SDS011;61391;50.922;6.928;2023-08-06T07:32:15;0.80;;;0.80;;
34697;SDS011;61391;50.922;6.928;2023-08-06T07:34:41;1.60;;;0.60;;
34697;SDS011;61391;50.922;6.928;2023-08-06T07:37:07;2.42;;;0.60;;
34697;SDS011;61391;50.922;6.928;2023-08-06T07:39:32;1.00;;;0.60;;
34697;SDS011;61391;50.922;6.928;2023-08-06T07:41:58;0.82;;;0.80;;
34697;SDS011;61391;50.922;6.928;2023-08-06T07:44:24;0.70;;;0.70;;
34697;SDS011;61391;50.922;6.928;2023-08-06T07:46:50;3.00;;;0.95;;
34697;SDS011;61391;50.922;6.928;2023-08-06T07:49:16;1.80;;;0.88;;
34697;SDS011;61391;50.922;6.928;2023-08-06T07:51:42;1.77;;;0.93;;
34697;SDS011;61391;50.922;6.928;2023-08-06T07:54:08;1.17;;;0.73;;
34697;SDS011;61391;50.922;6.928;2023-08-06T07:56:33;1.30;;;0.93;;
34697;SDS011;61391;50.922;6.928;2023-08-06T07:59:01;2.95;;;1.20;;
34697;SDS011;61391;50.922;6.928;2023-08-06T08:01:26;1.00;;;0.70;;
34697;SDS011;61391;50.922;6.928;2023-08-06T08:03:52;2.00;;;0.90;;
34697;SDS011;61391;50.922;6.928;2023-08-06T08:06:17;1.35;;;1.00;;
34697;SDS011;61391;50.922;6.928;2023-08-06T08:08:43;0.80;;;0.80;;
34697;SDS011;61391;50.922;6.928;2023-08-06T08:11:09;0.98;;;0.82;;
34697;SDS011;61391;50.922;6.928;2023-08-06T08:13:34;2.60;;;0.68;;
34697;SDS011;61391;50.922;6.928;2023-08-06T08:16:00;1.58;;;0.77;;
34697;SDS011;61391;50.922;6.928;2023-08-06T08:18:26;2.47;;;0.70;;
34697;SDS011;61391;50.922;6.928;2023-08-06T08:20:52;0.70;;;0.70;;
34697;SDS011;61391;50.922;6.928;2023-08-06T08:23:19;0.80;;;0.70;;
34697;SDS011;61391;50.922;6.928;2023-08-06T08:25:45;0.82;;;0.80;;
34697;SDS011;61391;50.922;6.928;2023-08-06T08:28:11;1.52;;;1.10;;
34697;SDS011;61391;50.922;6.928;2023-08-06T08:30:37;1.90;;;0.90;;
34697;SDS011;61391;50.922;6.928;2023-08-06T08:33:02;1.67;;;1.30;;
34697;SDS011;61391;50.922;6.928;2023-08-06T08:35:28;1.10;;;1.00;;
34697;SDS011;61391;50.922;6.928;2023-08-06T08:37:54;2.42;;;0.85;;
34697;SDS011;61391;50.922;6.928;2023-08-06T08:40:19;1.23;;;0.82;;
34697;SDS011;61391;50.922;6.928;2023-08-06T08:42:49;0.65;;;0.50;;
34697;SDS011;61391;50.922;6.928;2023-08-06T08:45:15;0.50;;;0.50;;
34697;SDS011;61391;50.922;6.928;2023-08-06T08:47:45;0.95;;;0.70;;
34697;SDS011;61391;50.922;6.928;2023-08-06T08:50:12;0.50;;;0.50;;
34697;SDS011;61391;50.922;6.928;2023-08-06T08:52:39;1.33;;;1.02;;
34697;SDS011;61391;50.922;6.928;2023-08-06T08:55:06;1.02;;;0.52;;
34697;SDS011;61391;50.922;6.928;2023-08-06T08:57:33;0.70;;;0.63;;
34697;SDS011;61391;50.922;6.928;2023-08-06T08:59:58;1.70;;;0.73;;
34697;SDS011;61391;50.922;6.928;2023-08-06T09:02:25;0.98;;;0.52;;
34697;SDS011;61391;50.922;6.928;2023-08-06T09:04:54;0.70;;;0.70;;
34697;SDS011;61391;50.922;6.928;2023-08-06T09:07:24;0.80;;;0.80;;
34697;SDS011;61391;50.922;6.928;2023-08-06T09:09:54;0.85;;;0.65;;
34697;SDS011;61391;50.922;6.928;2023-08-06T09:12:21;0.73;;;0.60;;
34697;SDS011;61391;50.922;6.928;2023-08-06T09:14:48;0.50;;;0.50;;
34697;SDS011;61391;50.922;6.928;2023-08-06T09:17:14;0.45;;;0.40;;
34697;SDS011;61391;50.922;6.928;2023-08-06T09:19:44;0.50;;;0.50;;
34697;SDS011;61391;50.922;6.928;2023-08-06T09:22:12;0.70;;;0.60;;
34697;SDS011;61391;50.922;6.928;2023-08-06T09:24:39;0.57;;;0.57;;
34697;SDS011;61391;50.922;6.928;2023-08-06T09:27:10;0.88;;;0.60;;
34697;SDS011;61391;50.922;6.928;2023-08-06T09:29:41;0.73;;;0.73;;
34697;SDS011;61391;50.922;6.928;2023-08-06T09:32:09;1.45;;;1.10;;
34697;SDS011;61391;50.922;6.928;2023-08-06T09:34:35;0.55;;;0.55;;
34697;SDS011;61391;50.922;6.928;2023-08-06T09:37:03;0.80;;;0.80;;
34697;SDS011;61391;50.922;6.928;2023-08-06T09:39:30;1.30;;;1.20;;
34697;SDS011;61391;50.922;6.928;2023-08-06T09:42:00;1.55;;;0.95;;
34697;SDS011;61391;50.922;6.928;2023-08-06T09:44:27;1.20;;;1.10;;
34697;SDS011;61391;50.922;6.928;2023-08-06T09:46:56;1.35;;;1.13;;
34697;SDS011;61391;50.922;6.928;2023-08-06T09:49:26;1.88;;;1.25;;
34697;SDS011;61391;50.922;6.928;2023-08-06T09:51:52;1.80;;;1.50;;
34697;SDS011;61391;50.922;6.928;2023-08-06T09:54:21;1.98;;;1.50;;
34697;SDS011;61391;50.922;6.928;2023-08-06T09:56:48;1.52;;;1.42;;
34697;SDS011;61391;50.922;6.928;2023-08-06T09:59:15;1.75;;;1.55;;
34697;SDS011;61391;50.922;6.928;2023-08-06T10:01:41;2.40;;;2.13;;
34697;SDS011;61391;50.922;6.928;2023-08-06T10:04:07;1.80;;;1.70;;
34697;SDS011;61391;50.922;6.928;2023-08-06T10:06:33;1.00;;;1.00;;
34697;SDS011;61391;50.922;6.928;2023-08-06T10:09:03;0.95;;;0.95;;
34697;SDS011;61391;50.922;6.928;2023-08-06T10:11:29;1.30;;;1.20;;
34697;SDS011;61391;50.922;6.928;2023-08-06T10:13:57;0.88;;;0.85;;
34697;SDS011;61391;50.922;6.928;2023-08-06T10:16:27;0.28;;;0.28;;
34697;SDS011;61391;50.922;6.928;2023-08-06T10:18:53;0.20;;;0.20;;
34697;SDS011;61391;50.922;6.928;2023-08-06T10:21:19;0.20;;;0.20;;
34697;SDS011;61391;50.922;6.928;2023-08-06T10:23:49;0.90;;;0.40;;
34697;SDS011;61391;50.922;6.928;2023-08-06T10:26:19;0.30;;;0.30;;
34697;SDS011;61391;50.922;6.928;2023-08-06T10:28:45;0.22;;;0.22;;
34697;SDS011;61391;50.922;6.928;2023-08-06T10:31:11;1.23;;;0.30;;
34697;SDS011;61391;50.922;6.928;2023-08-06T10:33:42;0.35;;;0.30;;
34697;SDS011;61391;50.922;6.928;2023-08-06T10:36:09;0.65;;;0.65;;
34697;SDS011;61391;50.922;6.928;2023-08-06T10:38:36;0.30;;;0.30;;
34697;SDS011;61391;50.922;6.928;2023-08-06T10:41:17;0.50;;;0.50;;
34697;SDS011;61391;50.922;6.928;2023-08-06T10:43:52;0.40;;;0.40;;
34697;SDS011;61391;50.922;6.928;2023-08-06T10:46:34;0.40;;;0.40;;
34697;SDS011;61391;50.922;6.928;2023-08-06T10:49:01;0.40;;;0.40;;
34697;SDS011;61391;50.922;6.928;2023-08-06T10:51:27;1.48;;;1.00;;
34697;SDS011;61391;50.922;6.928;2023-08-06T10:53:53;1.33;;;0.90;;
34697;SDS011;61391;50.922;6.928;2023-08-06T10:56:21;0.60;;;0.55;;
34697;SDS011;61391;50.922;6.928;2023-08-06T10:58:51;1.13;;;0.70;;
34697;SDS011;61391;50.922;6.928;2023-08-06T11:01:18;1.02;;;0.80;;
34697;SDS011;61391;50.922;6.928;2023-08-06T11:03:45;1.10;;;1.00;;
34697;SDS011;61391;50.922;6.928;2023-08-06T11:06:16;0.70;;;0.60;;
34697;SDS011;61391;50.922;6.928;2023-08-06T11:08:51;1.30;;;0.80;;
34697;SDS011;61391;50.922;6.928;2023-08-06T11:11:22;0.70;;;0.70;;
34697;SDS011;61391;50.922;6.928;2023-08-06T11:13:50;1.25;;;0.60;;
34697;SDS011;61391;50.922;6.928;2023-08-06T11:16:18;3.45;;;0.60;;
34697;SDS011;61391;50.922;6.928;2023-08-06T11:18:45;1.52;;;0.82;;
34697;SDS011;61391;50.922;6.928;2023-08-06T11:21:12;0.80;;;0.65;;
34697;SDS011;61391;50.922;6.928;2023-08-06T11:23:41;0.85;;;0.85;;
34697;SDS011;61391;50.922;6.928;2023-08-06T11:26:07;2.95;;;1.05;;
34697;SDS011;61391;50.922;6.928;2023-08-06T11:28:33;1.50;;;0.90;;
34697;SDS011;61391;50.922;6.928;2023-08-06T11:30:58;0.93;;;0.70;;
34697;SDS011;61391;50.922;6.928;2023-08-06T11:33:27;2.60;;;0.80;;
34697;SDS011;61391;50.922;6.928;2023-08-06T11:35:54;2.15;;;0.75;;
34697;SDS011;61391;50.922;6.928;2023-08-06T11:38:21;1.90;;;1.00;;
34697;SDS011;61391;50.922;6.928;2023-08-06T11:40:49;1.48;;;1.10;;
34697;SDS011;61391;50.922;6.928;2023-08-06T11:43:15;1.77;;;1.08;;
34697;SDS011;61391;50.922;6.928;2023-08-06T11:45:44;1.65;;;0.57;;
34697;SDS011;61391;50.922;6.928;2023-08-06T11:48:09;2.05;;;0.70;;
34697;SDS011;61391;50.922;6.928;2023-08-06T11:50:38;1.58;;;0.60;;
34697;SDS011;61391;50.922;6.928;2023-08-06T11:53:07;0.90;;;0.60;;
34697;SDS011;61391;50.922;6.928;2023-08-06T11:55:32;1.75;;;0.52;;
34697;SDS011;61391;50.922;6.928;2023-08-06T11:57:59;1.35;;;0.60;;
34697;SDS011;61391;50.922;6.928;2023-08-06T12:00:29;1.65;;;0.73;;
34697;SDS011;61391;50.922;6.928;2023-08-06T12:02:54;0.73;;;0.50;;
34697;SDS011;61391;50.922;6.928;2023-08-06T12:05:23;2.25;;;0.30;;
34697;SDS011;61391;50.922;6.928;2023-08-06T12:07:55;0.82;;;0.45;;
34697;SDS011;61391;50.922;6.928;2023-08-06T12:10:27;0.38;;;0.38;;
34697;SDS011;61391;50.922;6.928;2023-08-06T12:12:54;0.60;;;0.35;;
34697;SDS011;61391;50.922;6.928;2023-08-06T12:15:20;1.48;;;0.60;;
34697;SDS011;61391;50.922;6.928;2023-08-06T12:17:46;0.73;;;0.38;;
34697;SDS011;61391;50.922;6.928;2023-08-06T12:20:11;0.80;;;0.25;;
34697;SDS011;61391;50.922;6.928;2023-08-06T12:22:38;1.23;;;0.50;;
34697;SDS011;61391;50.922;6.928;2023-08-06T12:25:05;0.50;;;0.30;;
34697;SDS011;61391;50.922;6.928;2023-08-06T12:27:33;1.90;;;0.50;;
34697;SDS011;61391;50.922;6.928;2023-08-06T12:29:59;0.93;;;0.43;;
34697;SDS011;61391;50.922;6.928;2023-08-06T12:32:25;1.65;;;0.40;;
34697;SDS011;61391;50.922;6.928;2023-08-06T12:34:51;1.80;;;0.60;;
34697;SDS011;61391;50.922;6.928;2023-08-06T12:37:17;0.93;;;0.45;;
34697;SDS011;61391;50.922;6.928;2023-08-06T12:39:42;1.88;;;1.05;;
34697;SDS011;61391;50.922;6.928;2023-08-06T12:42:08;0.77;;;0.40;;
34697;SDS011;61391;50.922;6.928;2023-08-06T12:44:35;1.00;;;0.40;;
34697;SDS011;61391;50.922;6.928;2023-08-06T12:47:02;1.23;;;0.50;;
34697;SDS011;61391;50.922;6.928;2023-08-06T12:49:27;0.55;;;0.50;;
34697;SDS011;61391;50.922;6.928;2023-08-06T12:51:54;2.60;;;0.60;;
34697;SDS011;61391;50.922;6.928;2023-08-06T12:54:21;0.80;;;0.70;;
34697;SDS011;61391;50.922;6.928;2023-08-06T12:56:47;0.60;;;0.60;;
34697;SDS011;61391;50.922;6.928;2023-08-06T12:59:15;3.63;;;0.70;;
34697;SDS011;61391;50.922;6.928;2023-08-06T13:01:42;2.28;;;0.90;;
34697;SDS011;61391;50.922;6.928;2023-08-06T13:04:08;1.15;;;1.00;;
34697;SDS011;61391;50.922;6.928;2023-08-06T13:06:34;0.73;;;0.60;;
34697;SDS011;61391;50.922;6.928;2023-08-06T13:09:02;0.60;;;0.60;;
34697;SDS011;61391;50.922;6.928;2023-08-06T13:11:28;2.28;;;0.90;;
34697;SDS011;61391;50.922;6.928;2023-08-06T13:13:59;1.45;;;0.70;;
34697;SDS011;61391;50.922;6.928;2023-08-06T13:16:35;3.25;;;1.10;;
34697;SDS011;61391;50.922;6.928;2023-08-06T13:19:01;1.85;;;1.08;;
34697;SDS011;61391;50.922;6.928;2023-08-06T13:21:32;2.08;;;0.65;;
34697;SDS011;61391;50.922;6.928;2023-08-06T13:24:00;2.20;;;0.90;;
34697;SDS011;61391;50.922;6.928;2023-08-06T13:26:27;0.73;;;0.73;;
34697;SDS011;61391;50.922;6.928;2023-08-06T13:28:53;1.63;;;0.80;;
34697;SDS011;61391;50.922;6.928;2023-08-06T13:31:19;2.47;;;0.93;;
34697;SDS011;61391;50.922;6.928;2023-08-06T13:33:46;1.52;;;1.23;;
34697;SDS011;61391;50.922;6.928;2023-08-06T13:36:13;1.27;;;0.90;;
34697;SDS011;61391;50.922;6.928;2023-08-06T13:38:39;1.38;;;1.10;;
34697;SDS011;61391;50.922;6.928;2023-08-06T13:41:04;3.25;;;1.23;;
34697;SDS011;61391;50.922;6.928;2023-08-06T13:43:30;1.92;;;1.05;;
34697;SDS011;61391;50.922;6.928;2023-08-06T13:45:56;1.27;;;1.20;;
34697;SDS011;61391;50.922;6.928;2023-08-06T13:48:22;1.38;;;1.15;;
34697;SDS011;61391;50.922;6.928;2023-08-06T13:50:48;1.70;;;1.13;;
34697;SDS011;61391;50.922;6.928;2023-08-06T13:53:13;1.33;;;1.23;;
34697;SDS011;61391;50.922;6.928;2023-08-06T13:55:40;2.47;;;1.40;;
34697;SDS011;61391;50.922;6.928;2023-08-06T13:58:07;2.35;;;1.38;;
34697;SDS011;61391;50.922;6.928;2023-08-06T14:00:33;1.98;;;1.38;;
34697;SDS011;61391;50.922;6.928;2023-08-06T14:03:00;6.38;;;2.20;;
34697;SDS011;61391;50.922;6.928;2023-08-06T14:05:27;1.98;;;1.40;;
34697;SDS011;61391;50.922;6.928;2023-08-06T14:12:51;3.53;;;1.35;;
34697;SDS011;61391;50.922;6.928;2023-08-06T14:15:16;1.33;;;1.20;;
34697;SDS011;61391;50.922;6.928;2023-08-06T14:17:43;1.15;;;1.08;;
34697;SDS011;61391;50.922;6.928;2023-08-06T14:20:12;0.75;;;0.63;;
34697;SDS011;61391;50.922;6.928;2023-08-06T14:22:37;0.85;;;0.60;;
34697;SDS011;61391;50.922;6.928;2023-08-06T14:25:03;1.33;;;0.70;;
34697;SDS011;61391;50.922;6.928;2023-08-06T14:27:30;1.65;;;0.50;;
34697;SDS011;61391;50.922;6.928;2023-08-06T14:29:55;1.85;;;0.50;;
34697;SDS011;61391;50.922;6.928;2023-08-06T14:32:21;1.38;;;0.52;;
34697;SDS011;61391;50.922;6.928;2023-08-06T14:34:47;0.75;;;0.50;;
34697;SDS011;61391;50.922;6.928;2023-08-06T14:37:14;1.70;;;0.32;;
34697;SDS011;61391;50.922;6.928;2023-08-06T14:39:40;0.45;;;0.40;;
34697;SDS011;61391;50.922;6.928;2023-08-06T14:42:06;0.63;;;0.50;;
34697;SDS011;61391;50.922;6.928;2023-08-06T14:44:31;1.13;;;0.40;;
34697;SDS011;61391;50.922;6.928;2023-08-06T14:46:57;0.55;;;0.30;;
34697;SDS011;61391;50.922;6.928;2023-08-06T14:49:23;0.82;;;0.40;;